Time;durP1;ratioP1;P1;durP2;ratioP2;P2;SDS_P1;SDS_P2;PMS_P1;PMS_P2;Temp;Humidity;BMP_temperature;BMP_pressure;BME280_temperature;BME280_humidity;BME280_pressure;Samples;Min_cycle;Max_cycle;Signal;HPM_P1;HPM_P2
2022/08/11 00:01:48;;;;;;;6.90;2.75;;;;;;;14.06;78.58;97387.09;10479266;28;20309;-76
2022/08/11 00:06:50;;;;;;;3.22;2.63;;;;;;;14.02;78.89;97380.50;10479339;28;20192;-75
2022/08/11 00:11:53;;;;;;;4.93;2.85;;;;;;;14.03;79.06;97382.16;10479255;28;20651;-75
2022/08/11 00:16:58;;;;;;;3.22;2.92;;;;;;;14.22;78.43;97381.84;10479373;28;20195;-75
2022/08/11 00:21:58;;;;;;;4.35;2.72;;;;;;;14.34;77.60;97361.28;10462167;28;20223;-75
2022/08/11 00:26:59;;;;;;;5.13;3.00;;;;;;;14.28;77.79;97381.19;10496267;28;20187;-76
2022/08/11 00:32:02;;;;;;;5.97;2.97;;;;;;;14.12;78.54;97386.47;10461556;28;20199;-74
2022/08/11 00:37:06;;;;;;;3.00;2.50;;;;;;;14.09;79.11;97392.06;10478288;28;20564;-75
2022/08/11 00:42:23;;;;;;;5.57;2.80;;;;;;;14.10;78.99;97391.03;10477704;28;20215;-75
2022/08/11 00:47:36;;;;;;;5.20;3.03;;;;;;;14.07;79.60;97394.00;10496088;28;20221;-75
2022/08/11 00:52:49;;;;;;;3.72;2.83;;;;;;;14.08;79.54;97393.84;10477314;28;20263;-75
2022/08/11 00:58:18;;;;;;;3.53;2.85;;;;;;;13.97;80.08;97388.06;10478028;28;20183;-75
2022/08/11 01:04:09;;;;;;;2.92;2.65;;;;;;;13.79;81.43;97402.16;10493883;28;20241;-75
2022/08/11 01:09:19;;;;;;;8.10;3.03;;;;;;;13.48;82.91;97400.06;10477424;28;20236;-75
2022/08/11 01:14:52;;;;;;;5.55;2.78;;;;;;;13.38;84.21;97394.09;10494940;28;20195;-75
2022/08/11 01:20:08;;;;;;;4.13;3.30;;;;;;;13.54;83.92;97396.00;10493671;28;20187;-74
2022/08/11 01:25:42;;;;;;;5.55;3.22;;;;;;;13.43;84.68;97397.09;10493900;28;20191;-74
2022/08/11 01:31:08;;;;;;;4.03;2.50;;;;;;;13.52;84.47;97398.78;10475281;28;20274;-74
2022/08/11 01:36:33;;;;;;;8.75;3.28;;;;;;;13.26;85.80;97390.06;10474874;28;20690;-74
2022/08/11 01:48:03;;;;;;;5.57;3.42;;;;;;;13.13;88.28;97396.56;10492652;28;20525;-75
2022/08/11 01:53:28;;;;;;;4.03;3.15;;;;;;;13.19;87.42;97385.44;10491944;28;20302;-75
2022/08/11 01:58:43;;;;;;;4.07;3.35;;;;;;;13.17;87.66;97389.22;10492565;28;20237;-75
2022/08/11 02:04:08;;;;;;;7.35;4.00;;;;;;;13.21;88.29;97387.91;10473314;28;20621;-75
2022/08/11 02:09:20;;;;;;;4.93;3.42;;;;;;;13.26;87.81;97379.53;10492381;28;20195;-75
2022/08/11 02:14:44;;;;;;;5.65;3.67;;;;;;;13.19;88.12;97374.09;10492225;28;20183;-75
2022/08/11 02:25:39;;;;;;;7.95;3.35;;;;;;;13.15;88.90;97383.25;10476426;28;20195;-74
2022/08/11 02:36:51;;;;;;;3.97;3.58;;;;;;;12.94;90.31;97381.00;10491654;28;20219;-75
2022/08/11 02:49:52;;;;;;;3.65;2.90;;;;;;;12.98;91.16;97379.72;10476221;28;20195;-74
2022/08/11 02:53:23;;;;;;;5.85;3.15;;;;;;;12.79;92.50;97378.94;10496290;28;20302;-74
2022/08/11 02:58:38;;;;;;;5.60;3.13;;;;;;;12.83;92.00;97382.06;10482730;28;20178;-73
2022/08/11 03:03:56;;;;;;;3.58;3.05;;;;;;;12.78;92.73;97392.25;10482230;28;20322;-74
2022/08/11 03:09:11;;;;;;;8.45;3.45;;;;;;;12.94;91.78;97392.38;10506681;28;20222;-74
2022/08/11 03:20:08;;;;;;;5.57;3.80;;;;;;;12.97;91.49;97394.69;10479374;28;20214;-74
2022/08/11 03:25:19;;;;;;;5.90;3.47;;;;;;;12.99;91.09;97390.09;10475578;28;20662;-74
2022/08/11 03:30:29;;;;;;;6.93;3.53;;;;;;;13.04;90.19;97394.88;10493234;28;20552;-75
2022/08/11 03:35:35;;;;;;;4.80;3.70;;;;;;;12.84;91.85;97391.63;10474950;28;20223;-75
2022/08/11 03:46:55;;;;;;;7.82;3.38;;;;;;;12.73;93.26;97405.03;10478515;28;20270;-74
2022/08/11 03:52:07;;;;;;;5.63;3.30;;;;;;;12.63;94.50;97392.81;10474396;28;20192;-73
2022/08/11 03:57:26;;;;;;;7.05;3.53;;;;;;;12.69;94.04;97391.34;10474969;28;20230;-74
2022/08/11 04:03:00;;;;;;;3.30;3.00;;;;;;;12.73;93.81;97384.00;10458274;28;20211;-73
2022/08/11 04:08:03;;;;;;;5.38;3.00;;;;;;;12.70;94.04;97392.19;10497089;28;20195;-75
2022/08/11 04:13:26;;;;;;;4.70;3.05;;;;;;;12.70;93.95;97381.69;10496530;28;20199;-75
2022/08/11 04:19:04;;;;;;;4.13;3.33;;;;;;;12.76;93.75;97381.06;10495487;28;20179;-75
2022/08/11 04:24:07;;;;;;;6.53;3.28;;;;;;;12.74;93.94;97377.75;10496264;28;20230;-75
2022/08/11 04:29:28;;;;;;;4.95;3.40;;;;;;;12.73;93.72;97382.19;10497050;28;20211;-75
2022/08/11 04:34:45;;;;;;;4.13;2.92;;;;;;;12.73;94.06;97384.81;10495784;28;20215;-74
2022/08/11 04:40:09;;;;;;;3.72;3.10;;;;;;;12.70;94.29;97382.50;10477310;28;20198;-75
2022/08/11 04:45:39;;;;;;;4.43;3.35;;;;;;;12.71;94.64;97392.03;10478422;28;20319;-75
2022/08/11 05:02:16;;;;;;;4.70;3.30;;;;;;;13.54;89.62;97378.38;10479530;28;20223;-75
2022/08/11 05:07:35;;;;;;;3.58;2.80;;;;;;;13.81;88.27;97373.03;10495906;28;20202;-74
2022/08/11 05:12:42;;;;;;;6.10;3.42;;;;;;;14.06;86.76;97369.47;10494893;28;20632;-74
2022/08/11 06:01:11;;;;;;;6.65;2.90;;;;;;;17.09;72.29;97301.38;10492581;28;20552;-74
2022/08/11 06:06:11;;;;;;;4.28;2.85;;;;;;;18.04;68.38;97275.81;10475604;28;20187;-74
2022/08/11 06:11:12;;;;;;;6.82;2.83;;;;;;;18.99;64.72;97223.22;10498257;28;20191;-75
2022/08/11 06:16:14;;;;;;;3.80;2.35;;;;;;;19.98;61.81;97198.94;10530544;28;20666;-75
2022/08/11 06:21:15;;;;;;;2.80;2.38;;;;;;;19.89;60.45;97188.53;10516241;28;20271;-75
2022/08/11 06:26:16;;;;;;;5.50;2.67;;;;;;;21.27;57.20;97164.63;10514077;28;20618;-75
2022/08/11 06:31:19;;;;;;;4.30;2.05;;;;;;;22.56;53.64;97129.59;10515804;28;20216;-75
2022/08/11 06:36:30;;;;;;;3.58;2.08;;;;;;;23.06;51.95;97115.19;10532214;28;20706;-76
2022/08/11 06:41:45;;;;;;;2.97;2.00;;;;;;;23.66;49.41;97072.34;10530611;28;20206;-76
2022/08/11 06:46:49;;;;;;;4.53;1.60;;;;;;;25.04;47.42;97083.59;10533188;28;20201;-74
2022/08/11 06:51:50;;;;;;;6.45;1.88;;;;;;;26.11;43.73;97021.97;10512384;28;20191;-74
2022/08/11 07:02:32;;;;;;;5.47;2.10;;;;;;;26.02;41.63;96980.50;10528823;28;20209;-74
2022/08/11 07:29:13;;;;;;;4.00;1.80;;;;;;;26.18;39.17;96952.78;10513199;28;20206;-75
2022/08/11 07:34:31;;;;;;;3.22;1.83;;;;;;;26.41;39.37;96964.31;10512306;28;20633;-75
2022/08/11 07:39:33;;;;;;;2.63;1.70;;;;;;;25.77;40.88;96992.50;10517984;28;20206;-75
2022/08/11 07:48:10;;;;;;;5.55;2.17;;;;;;;25.92;40.93;97002.63;10518923;28;20249;-75
2022/08/11 07:55:15;;;;;;;7.63;2.10;;;;;;;27.77;37.89;96967.63;10537055;28;20264;-75
2022/08/11 08:21:34;;;;;;;8.27;2.17;;;;;;;28.07;36.99;96960.81;10517790;28;20214;-75
2022/08/11 08:27:08;;;;;;;2.75;1.75;;;;;;;28.51;36.20;96977.66;10518720;28;20190;-74
2022/08/11 08:32:10;;;;;;;6.38;1.88;;;;;;;27.19;38.27;96980.13;10479478;28;20213;-74
2022/08/11 08:37:10;;;;;;;5.32;2.17;;;;;;;26.89;39.24;96992.22;10517669;28;20214;-74
2022/08/11 08:42:12;;;;;;;4.40;1.92;;;;;;;28.24;37.43;96984.03;10517780;28;20218;-74
2022/08/11 08:47:17;;;;;;;6.50;2.03;;;;;;;27.68;38.35;96992.63;10535261;28;20215;-75
2022/08/11 08:52:22;;;;;;;6.28;2.05;;;;;;;28.13;37.32;96967.03;10516035;28;20608;-76
2022/08/11 08:57:22;;;;;;;2.17;1.98;;;;;;;29.10;35.72;96965.66;10535240;28;20718;-75
2022/08/11 09:02:24;;;;;;;4.18;2.00;;;;;;;28.83;35.23;96943.22;10534271;28;20228;-75
2022/08/11 09:07:25;;;;;;;3.45;2.00;;;;;;;28.27;35.90;96935.84;10534156;28;20301;-75
2022/08/11 09:12:27;;;;;;;4.30;2.13;;;;;;;27.88;36.53;96933.50;10516894;28;20265;-75
2022/08/11 09:17:38;;;;;;;7.55;1.85;;;;;;;26.98;38.14;96971.88;10515409;28;20233;-75
2022/08/11 09:28:03;;;;;;;5.82;1.95;;;;;;;26.69;39.10;96990.16;10518965;28;20285;-75
2022/08/11 09:33:04;;;;;;;4.35;1.73;;;;;;;27.49;38.35;96998.44;10515441;28;20187;-75
2022/08/11 09:49:54;;;;;;;5.38;1.70;;;;;;;29.57;34.31;96944.84;10533877;28;20646;-75
2022/08/11 09:54:55;;;;;;;6.47;1.92;;;;;;;29.45;34.08;96923.53;10514930;28;21024;-75
2022/08/11 09:59:56;;;;;;;2.00;1.67;;;;;;;26.67;38.31;96900.94;10514105;28;20190;-75
2022/08/11 10:07:00;;;;;;;4.93;1.88;;;;;;;28.35;36.28;96937.19;10512396;28;20939;-75
2022/08/11 10:10:22;;;;;;;3.35;1.77;;;;;;;29.33;35.48;96953.53;10517280;28;20654;-75
2022/08/11 10:15:37;;;;;;;7.53;2.10;;;;;;;29.73;33.73;96895.09;10514113;28;20198;-75
2022/08/11 10:20:38;;;;;;;4.03;1.70;;;;;;;30.02;33.35;96906.09;10515173;28;20317;-75
2022/08/11 10:36:43;;;;;;;3.65;1.95;;;;;;;27.56;36.71;96891.34;10320521;28;20686;-74
2022/08/11 11:03:01;;;;;;;4.45;1.48;;;;;;;31.59;30.45;96821.53;10515705;28;20230;-76
2022/08/11 11:08:51;;;;;;;8.48;1.65;;;;;;;30.80;30.91;96800.13;10499573;28;20191;-75
2022/08/11 11:18:51;;;;;;;1.77;1.42;;;;;;;29.68;31.96;96785.22;10479614;28;20281;-76
2022/08/11 11:23:55;;;;;;;4.57;1.45;;;;;;;29.79;32.59;96804.88;10482261;28;20645;-75
2022/08/11 11:29:06;;;;;;;5.45;1.20;;;;;;;30.58;30.43;96774.38;10484064;28;20187;-76
2022/08/11 11:34:44;;;;;;;5.63;1.58;;;;;;;30.56;30.21;96769.25;10496667;28;20758;-76
2022/08/11 11:39:45;;;;;;;7.55;1.48;;;;;;;31.48;28.84;96761.25;10496975;28;20249;-77
2022/08/11 11:44:46;;;;;;;3.70;1.20;;;;;;;30.99;29.83;96770.50;10494951;28;20236;-77
2022/08/11 11:49:53;;;;;;;3.70;1.20;;;;;;;30.91;28.84;96699.66;10531589;28;20553;-78
2022/08/11 11:55:06;;;;;;;3.08;1.20;;;;;;;31.27;29.25;96742.56;10541844;28;20241;-76
2022/08/11 12:06:33;;;;;;;5.80;1.30;;;;;;;31.43;27.03;96670.06;10537055;28;20194;-77
2022/08/11 12:16:54;;;;;;;1.60;1.13;;;;;;;32.07;26.56;96666.97;10520816;28;20198;-78
2022/08/11 12:27:20;;;;;;;4.90;1.23;;;;;;;31.97;26.74;96670.63;10534373;28;20265;-76
2022/08/11 12:32:23;;;;;;;4.30;1.20;;;;;;;30.75;27.80;96622.50;10518320;28;20187;-76
2022/08/11 12:37:30;;;;;;;2.95;1.33;;;;;;;31.21;27.35;96640.88;10518306;28;20222;-76
2022/08/11 12:53:11;;;;;;;1.88;1.20;;;;;;;32.15;26.17;96641.13;10535875;28;20218;-76
2022/08/11 12:58:16;;;;;;;1.80;1.10;;;;;;;32.42;24.74;96588.84;10514634;28;20191;-78
2022/08/11 13:08:39;;;;;;;5.80;1.02;;;;;;;32.97;24.96;96625.19;10518760;28;20190;-76
2022/08/11 13:13:42;;;;;;;2.17;1.00;;;;;;;32.99;24.93;96604.78;10514164;28;20183;-75
2022/08/11 13:19:15;;;;;;;6.03;0.95;;;;;;;31.83;25.61;96574.97;10514635;28;20187;-76
2022/08/11 13:24:17;;;;;;;2.30;1.05;;;;;;;31.60;24.86;96496.25;10522797;28;20214;-75
2022/08/11 13:29:21;;;;;;;2.55;1.00;;;;;;;32.68;24.59;96564.75;10517565;28;20206;-77
2022/08/11 13:34:23;;;;;;;2.75;0.85;;;;;;;33.42;24.12;96571.81;10515775;28;20716;-76
2022/08/11 13:39:27;;;;;;;1.58;1.10;;;;;;;34.29;23.65;96597.97;10536040;28;20556;-77
2022/08/11 13:44:30;;;;;;;5.72;1.33;;;;;;;32.84;24.02;96529.16;10516416;28;20632;-77
2022/08/11 13:49:32;;;;;;;1.88;1.30;;;;;;;33.02;23.58;96532.81;10515506;28;20201;-77
2022/08/11 13:54:39;;;;;;;1.25;1.02;;;;;;;32.67;24.64;96529.78;10514255;28;20253;-74
2022/08/11 13:59:40;;;;;;;1.63;1.05;;;;;;;34.07;24.34;96609.66;10533438;28;20202;-75
2022/08/11 14:04:44;;;;;;;1.92;1.38;;;;;;;33.66;23.88;96559.84;10533355;28;20673;-76
2022/08/11 14:09:45;;;;;;;2.15;1.00;;;;;;;35.11;23.20;96611.19;10516113;28;20627;-76
2022/08/11 14:14:53;;;;;;;6.88;1.52;;;;;;;34.84;22.85;96550.44;10533129;28;20193;-76
2022/08/11 14:19:53;;;;;;;3.47;1.38;;;;;;;35.27;22.44;96562.50;10533169;28;20542;-75
2022/08/11 14:24:54;;;;;;;2.30;1.10;;;;;;;35.36;23.20;96602.25;10531913;28;20222;-76
2022/08/11 14:29:55;;;;;;;5.00;1.20;;;;;;;35.84;23.26;96616.03;10515257;28;20200;-76
2022/08/11 14:34:55;;;;;;;1.05;1.00;;;;;;;37.71;20.86;96606.28;10514447;28;20241;-75
2022/08/11 14:39:57;;;;;;;3.47;1.20;;;;;;;35.36;22.48;96525.97;10514496;28;20185;-76
2022/08/11 14:50:22;;;;;;;1.75;1.20;;;;;;;37.63;20.85;96573.19;10524680;28;20221;-76
2022/08/11 15:00:45;;;;;;;3.13;1.10;;;;;;;36.51;22.33;96562.72;10529608;28;20218;-76
2022/08/11 15:05:55;;;;;;;7.43;1.50;;;;;;;36.70;22.20;96577.88;10527166;28;20192;-75
2022/08/11 15:10:55;;;;;;;1.42;1.30;;;;;;;35.67;22.34;96535.06;10540219;28;20189;-76
2022/08/11 15:37:26;;;;;;;2.08;1.40;;;;;;;35.82;22.78;96550.13;10539499;28;20209;-76
2022/08/11 15:48:00;;;;;;;4.38;1.67;;;;;;;32.71;24.52;96441.25;10538982;28;20263;-74
2022/08/11 15:53:08;;;;;;;3.33;1.10;;;;;;;36.09;21.95;96539.94;10519431;28;20770;-74
2022/08/11 16:08:48;;;;;;;3.90;1.27;;;;;;;34.91;23.27;96515.38;10524948;28;20218;-76
2022/08/11 16:19:09;;;;;;;3.80;1.55;;;;;;;33.60;24.44;96468.72;10524432;28;20229;-75
2022/08/11 16:24:12;;;;;;;3.40;1.20;;;;;;;32.95;24.77;96461.88;10521534;28;20221;-75
2022/08/11 16:29:13;;;;;;;1.27;1.17;;;;;;;32.46;25.42;96491.41;10539109;28;20191;-76
2022/08/11 16:38:34;;;;;;;4.50;1.40;;;;;;;30.50;27.50;96464.09;10520756;28;20202;-75
2022/08/11 16:39:34;;;;;;;6.55;1.45;;;;;;;29.77;28.13;96468.69;10538825;28;20190;-76
2022/08/11 16:49:55;;;;;;;3.42;1.20;;;;;;;27.46;31.83;96536.13;10506077;28;20199;-75
2022/08/11 16:54:55;;;;;;;1.83;1.17;;;;;;;27.45;31.61;96547.16;10537242;28;20222;-76
2022/08/11 16:59:57;;;;;;;1.60;1.25;;;;;;;26.65;33.06;96573.28;10520025;28;20213;-75
2022/08/11 17:16:05;;;;;;;5.68;1.45;;;;;;;26.20;33.54;96592.69;10521377;28;20201;-75
2022/08/11 17:21:18;;;;;;;2.97;1.20;;;;;;;25.84;34.27;96611.22;10536607;28;20303;-75
2022/08/11 17:26:19;;;;;;;2.22;1.23;;;;;;;24.87;35.42;96615.38;10536241;28;20195;-75
2022/08/11 17:36:39;;;;;;;2.70;1.30;;;;;;;24.40;36.38;96643.41;10520582;28;20210;-75
